createdAt,value
2024-03-03T00:01:34.170Z,35.20
2024-03-03T00:04:01.995Z,36.20
2024-03-03T00:06:29.704Z,34.70
2024-03-03T00:08:57.366Z,39.10
2024-03-03T00:11:25.046Z,35.40
2024-03-03T00:13:52.681Z,34.70
2024-03-03T00:16:20.381Z,35.10
2024-03-03T00:18:47.927Z,35.50
2024-03-03T00:21:15.665Z,34.80
2024-03-03T00:23:43.230Z,35.60
2024-03-03T00:26:10.897Z,34.20
2024-03-03T00:28:38.444Z,32.80
2024-03-03T00:31:06.032Z,34.40
2024-03-03T00:33:33.628Z,32.80
2024-03-03T00:36:01.325Z,36.00
2024-03-03T00:38:28.891Z,34.90
2024-03-03T00:40:56.656Z,34.80
2024-03-03T00:43:24.519Z,33.60
2024-03-03T00:45:52.211Z,32.60
2024-03-03T00:48:20.157Z,31.40
2024-03-03T00:50:47.814Z,31.20
2024-03-03T00:53:15.488Z,33.10
2024-03-03T00:55:43.037Z,37.40
2024-03-03T00:58:10.739Z,36.40
2024-03-03T01:00:38.396Z,37.10
2024-03-03T01:03:06.038Z,36.20
2024-03-03T01:05:33.587Z,35.00
2024-03-03T01:08:01.147Z,35.30
2024-03-03T01:10:29.114Z,35.20
2024-03-03T01:12:56.818Z,36.50
2024-03-03T01:15:24.527Z,36.10
2024-03-03T01:17:52.191Z,35.00
2024-03-03T01:20:19.896Z,35.50
2024-03-03T01:22:47.729Z,35.20
2024-03-03T01:25:15.389Z,32.40
2024-03-03T01:27:43.194Z,33.50
2024-03-03T01:30:11.122Z,36.50
2024-03-03T01:32:38.716Z,36.10
2024-03-03T01:35:06.459Z,34.30
2024-03-03T01:37:33.893Z,33.10
2024-03-03T01:40:01.664Z,30.70
2024-03-03T01:42:29.325Z,32.20
2024-03-03T01:44:56.913Z,30.80
2024-03-03T01:47:24.595Z,37.50
2024-03-03T01:49:52.229Z,36.10
2024-03-03T01:52:19.830Z,36.50
2024-03-03T01:54:47.659Z,38.90
2024-03-03T01:57:15.708Z,39.30
2024-03-03T01:59:43.360Z,38.90
2024-03-03T02:02:11.060Z,39.00
2024-03-03T02:04:38.796Z,39.70
2024-03-03T02:07:06.351Z,40.60
2024-03-03T02:09:33.914Z,39.40
2024-03-03T02:12:01.574Z,36.70
2024-03-03T02:14:29.240Z,40.70
2024-03-03T02:16:57.211Z,38.40
2024-03-03T02:19:25.064Z,36.30
2024-03-03T02:21:53.006Z,39.10
2024-03-03T02:24:20.813Z,36.40
2024-03-03T02:26:48.355Z,38.20
2024-03-03T02:29:15.926Z,40.50
2024-03-03T02:31:43.592Z,40.50
2024-03-03T02:34:11.186Z,39.50
2024-03-03T02:36:39.294Z,38.00
2024-03-03T02:39:06.977Z,38.80
2024-03-03T02:41:34.638Z,38.60
2024-03-03T02:44:02.188Z,36.30
2024-03-03T02:46:29.923Z,39.30
2024-03-03T02:48:57.640Z,44.60
2024-03-03T02:51:25.284Z,39.20
2024-03-03T02:53:53.152Z,36.70
2024-03-03T02:56:20.814Z,37.30
2024-03-03T02:58:48.392Z,41.30
2024-03-03T03:01:16.086Z,37.80
2024-03-03T03:03:43.821Z,39.40
2024-03-03T03:06:11.574Z,38.10
2024-03-03T03:08:39.135Z,43.10
2024-03-03T03:11:06.920Z,40.90
2024-03-03T03:13:34.960Z,32.40
2024-03-03T03:16:02.798Z,32.70
2024-03-03T03:18:30.688Z,35.70
2024-03-03T03:20:58.246Z,34.70
2024-03-03T03:23:25.916Z,35.50
2024-03-03T03:25:53.469Z,32.00
2024-03-03T03:28:21.228Z,34.20
2024-03-03T03:30:48.919Z,35.60
2024-03-03T03:33:16.557Z,36.40
2024-03-03T03:35:44.119Z,36.10
2024-03-03T03:38:11.782Z,35.60
2024-03-03T03:40:39.340Z,39.50
2024-03-03T03:43:07.176Z,38.20
2024-03-03T03:45:34.870Z,40.20
2024-03-03T03:48:02.553Z,36.30
2024-03-03T03:50:30.187Z,35.30
2024-03-03T03:52:57.869Z,33.50
2024-03-03T03:55:25.435Z,32.10
2024-03-03T03:57:53.589Z,33.50
2024-03-03T04:00:21.242Z,32.40
2024-03-03T04:02:48.929Z,33.10
2024-03-03T04:05:16.503Z,31.60
2024-03-03T04:07:44.229Z,32.20
2024-03-03T04:10:11.826Z,34.60
2024-03-03T04:12:39.551Z,32.00
2024-03-03T04:15:07.217Z,32.30
2024-03-03T04:17:34.692Z,30.60
2024-03-03T04:20:02.230Z,29.80
2024-03-03T04:22:30.100Z,25.90
2024-03-03T04:24:57.801Z,26.20
2024-03-03T04:27:25.416Z,26.80
2024-03-03T04:29:53.095Z,27.50
2024-03-03T04:32:20.741Z,27.60
2024-03-03T04:34:48.304Z,26.50
2024-03-03T04:37:16.087Z,23.50
2024-03-03T04:39:43.845Z,22.80
2024-03-03T04:42:11.488Z,25.10
2024-03-03T04:44:39.461Z,29.60
2024-03-03T04:47:07.231Z,31.20
2024-03-03T04:49:34.883Z,28.30
2024-03-03T04:52:02.476Z,30.00
2024-03-03T04:54:30.009Z,28.90
2024-03-03T04:56:57.665Z,25.90
2024-03-03T04:59:25.225Z,25.60
2024-03-03T05:01:52.881Z,26.40
2024-03-03T05:04:20.843Z,26.40
2024-03-03T05:06:49.152Z,26.00
2024-03-03T05:09:16.904Z,26.30
2024-03-03T05:11:44.562Z,24.90
2024-03-03T05:14:12.131Z,24.40
2024-03-03T05:16:39.793Z,24.80
2024-03-03T05:19:07.404Z,24.80
2024-03-03T05:21:35.108Z,24.50
2024-03-03T05:24:02.973Z,24.00
2024-03-03T05:26:30.632Z,22.40
2024-03-03T05:28:58.290Z,21.30
2024-03-03T05:31:25.869Z,19.70
2024-03-03T05:33:53.424Z,22.40
2024-03-03T05:36:21.088Z,24.30
2024-03-03T05:38:48.627Z,23.40
2024-03-03T05:41:16.294Z,23.10
2024-03-03T05:43:43.852Z,22.20
2024-03-03T05:46:11.895Z,22.60
2024-03-03T05:48:39.624Z,21.50
2024-03-03T05:51:07.348Z,20.20
2024-03-03T05:53:34.928Z,21.30
2024-03-03T05:56:02.477Z,22.40
2024-03-03T05:58:30.175Z,21.30
2024-03-03T06:00:57.859Z,20.40
2024-03-03T06:03:25.659Z,19.90
2024-03-03T06:05:53.218Z,19.00
2024-03-03T06:08:20.882Z,18.40
2024-03-03T06:10:48.473Z,15.30
2024-03-03T06:13:16.216Z,14.10
2024-03-03T06:15:43.975Z,13.20
2024-03-03T06:18:11.566Z,13.90
2024-03-03T06:20:39.110Z,14.00
2024-03-03T06:23:06.648Z,13.70
2024-03-03T06:25:34.513Z,13.80
2024-03-03T06:28:02.221Z,13.80
2024-03-03T06:30:29.760Z,10.80
2024-03-03T06:32:57.544Z,11.60
2024-03-03T06:35:25.256Z,12.50
2024-03-03T06:37:52.924Z,10.10
2024-03-03T06:40:20.514Z,11.20
2024-03-03T06:42:48.187Z,11.70
2024-03-03T06:45:15.804Z,11.10
2024-03-03T06:47:43.320Z,11.20
2024-03-03T06:50:10.922Z,10.90
2024-03-03T06:52:38.488Z,10.70
2024-03-03T06:55:06.193Z,12.00
2024-03-03T06:57:33.598Z,11.20
2024-03-03T07:00:01.265Z,10.70
2024-03-03T07:02:28.922Z,9.90
2024-03-03T07:04:56.511Z,9.90
2024-03-03T07:07:24.206Z,9.40
2024-03-03T07:09:51.844Z,9.00
2024-03-03T07:12:19.874Z,8.60
2024-03-03T07:14:47.538Z,8.40
2024-03-03T07:17:15.214Z,8.30
2024-03-03T07:19:42.759Z,8.10
2024-03-03T07:22:10.364Z,9.30
2024-03-03T07:24:38.400Z,8.10
2024-03-03T07:27:05.948Z,8.70
2024-03-03T07:29:33.628Z,7.80
2024-03-03T07:32:01.579Z,8.20
2024-03-03T07:34:29.264Z,8.50
2024-03-03T07:36:56.821Z,7.90
2024-03-03T07:39:24.470Z,8.10
2024-03-03T07:41:52.018Z,7.60
2024-03-03T07:44:19.577Z,7.80
2024-03-03T07:46:47.142Z,8.10
2024-03-03T07:49:14.705Z,7.20
2024-03-03T07:51:42.268Z,7.10
2024-03-03T07:54:10.244Z,7.20
2024-03-03T07:56:37.891Z,6.50
2024-03-03T07:59:05.549Z,7.00
2024-03-03T08:01:33.165Z,6.90
2024-03-03T08:04:01.022Z,6.60
2024-03-03T08:06:28.640Z,6.40
2024-03-03T08:08:56.298Z,6.10
2024-03-03T08:11:23.864Z,7.20
2024-03-03T08:13:51.727Z,7.90
2024-03-03T08:16:19.349Z,8.10
2024-03-03T08:18:47.178Z,7.50
2024-03-03T08:21:14.924Z,8.10
2024-03-03T08:23:42.273Z,7.90
2024-03-03T08:26:09.967Z,7.20
2024-03-03T08:28:37.495Z,8.20
2024-03-03T08:31:05.190Z,8.00
2024-03-03T08:33:33.116Z,7.40
2024-03-03T08:36:00.715Z,7.40
2024-03-03T08:38:28.442Z,7.30
2024-03-03T08:40:56.106Z,7.90
2024-03-03T08:43:23.757Z,6.20
2024-03-03T08:45:51.550Z,6.20
2024-03-03T08:48:19.089Z,6.90
2024-03-03T08:50:46.759Z,6.10
2024-03-03T08:53:14.415Z,6.30
2024-03-03T08:55:42.279Z,7.10
2024-03-03T08:58:09.925Z,6.00
2024-03-03T09:00:37.732Z,6.90
2024-03-03T09:03:05.366Z,6.40
2024-03-03T09:05:32.935Z,6.00
2024-03-03T09:08:00.736Z,5.90
2024-03-03T09:10:28.411Z,7.30
2024-03-03T09:12:56.264Z,6.20
2024-03-03T09:15:24.312Z,6.10
2024-03-03T09:17:51.885Z,5.50
2024-03-03T09:20:19.508Z,6.90
2024-03-03T09:22:47.167Z,7.00
2024-03-03T09:25:14.791Z,6.20
2024-03-03T09:27:42.423Z,5.30
2024-03-03T09:30:10.166Z,5.80
2024-03-03T09:32:38.049Z,6.20
2024-03-03T09:35:05.887Z,6.00
2024-03-03T09:37:33.860Z,5.00
2024-03-03T09:40:01.600Z,5.20
2024-03-03T09:42:29.417Z,5.00
2024-03-03T09:44:56.946Z,4.20
2024-03-03T09:47:24.503Z,5.00
2024-03-03T09:49:52.175Z,4.50
2024-03-03T09:52:19.769Z,4.80
2024-03-03T09:54:47.622Z,4.20
2024-03-03T09:57:15.278Z,4.50
2024-03-03T09:59:42.955Z,3.90
2024-03-03T10:02:11.003Z,4.10
2024-03-03T10:04:38.764Z,5.60
2024-03-03T10:07:06.446Z,6.90
2024-03-03T10:09:33.975Z,6.60
2024-03-03T10:12:01.640Z,6.50
2024-03-03T10:14:29.420Z,6.90
2024-03-03T10:16:57.062Z,5.50
2024-03-03T10:19:24.759Z,5.00
2024-03-03T10:21:52.847Z,4.80
2024-03-03T10:24:22.330Z,5.50
2024-03-03T10:26:50.495Z,6.50
2024-03-03T10:29:18.038Z,6.10
2024-03-03T10:31:45.588Z,6.60
2024-03-03T10:34:13.176Z,5.80
2024-03-03T10:36:40.814Z,5.60
2024-03-03T10:39:08.472Z,4.70
2024-03-03T10:41:36.442Z,5.00
2024-03-03T10:44:03.997Z,5.40
2024-03-03T10:46:31.694Z,4.80
2024-03-03T10:48:59.429Z,7.90
2024-03-03T10:51:27.092Z,7.80
2024-03-03T10:53:54.653Z,7.10
2024-03-03T10:56:22.345Z,7.20
2024-03-03T10:58:49.877Z,5.90
2024-03-03T11:01:17.653Z,6.00
2024-03-03T11:03:45.728Z,5.10
2024-03-03T11:06:13.380Z,6.00
2024-03-03T11:08:40.834Z,6.30
2024-03-03T11:11:08.463Z,6.60
2024-03-03T11:13:36.150Z,6.30
2024-03-03T11:16:03.869Z,7.50
2024-03-03T11:18:31.679Z,5.90
2024-03-03T11:20:59.238Z,5.90
2024-03-03T11:23:26.884Z,6.30
2024-03-03T11:25:54.451Z,5.40
2024-03-03T11:28:22.152Z,5.60
2024-03-03T11:30:49.802Z,5.90
2024-03-03T11:33:17.597Z,5.60
2024-03-03T11:35:45.202Z,6.80
2024-03-03T11:38:12.925Z,6.00
2024-03-03T11:40:40.791Z,6.20
2024-03-03T11:43:08.522Z,7.40
2024-03-03T11:45:36.562Z,5.90
2024-03-03T11:48:04.260Z,6.30
2024-03-03T11:50:31.822Z,6.20
2024-03-03T11:52:59.445Z,6.10
2024-03-03T11:55:27.199Z,6.80
2024-03-03T11:57:55.143Z,6.50
2024-03-03T12:00:22.838Z,6.30
2024-03-03T12:02:50.510Z,6.00
2024-03-03T12:05:18.162Z,6.40
2024-03-03T12:07:45.619Z,6.20
2024-03-03T12:10:13.378Z,6.50
2024-03-03T12:12:41.045Z,7.40
2024-03-03T12:15:08.704Z,6.90
2024-03-03T12:17:36.312Z,6.10
2024-03-03T12:20:03.929Z,7.10
2024-03-03T12:22:31.557Z,6.10
2024-03-03T12:24:59.281Z,6.20
2024-03-03T12:27:26.833Z,7.20
2024-03-03T12:29:54.781Z,7.20
2024-03-03T12:32:22.354Z,7.20
2024-03-03T12:34:50.007Z,7.20
2024-03-03T12:37:17.603Z,6.80
2024-03-03T12:39:45.370Z,7.00
2024-03-03T12:42:12.990Z,5.90
2024-03-03T12:44:40.640Z,5.00
2024-03-03T12:47:08.416Z,9.60
2024-03-03T12:49:35.972Z,12.00
2024-03-03T12:52:03.977Z,5.80
2024-03-03T12:54:31.602Z,7.10
2024-03-03T12:56:59.374Z,6.20
2024-03-03T12:59:27.024Z,5.10
2024-03-03T13:01:54.830Z,10.00
2024-03-03T13:04:22.598Z,7.70
2024-03-03T13:06:50.495Z,7.90
2024-03-03T13:09:18.182Z,6.00
2024-03-03T13:11:46.164Z,6.90
2024-03-03T13:14:13.716Z,10.60
2024-03-03T13:16:41.464Z,6.00
2024-03-03T13:19:09.328Z,6.80
2024-03-03T13:21:37.131Z,7.50
2024-03-03T13:24:04.678Z,32.40
2024-03-03T13:26:32.333Z,6.80
2024-03-03T13:28:59.900Z,6.30
2024-03-03T13:31:27.874Z,6.30
2024-03-03T13:33:55.547Z,10.00
2024-03-03T13:36:23.192Z,22.40
2024-03-03T13:38:50.847Z,17.20
2024-03-03T13:41:18.401Z,35.00
2024-03-03T13:43:46.063Z,44.10
2024-03-03T13:46:13.812Z,7.80
2024-03-03T13:48:41.491Z,9.50
2024-03-03T13:51:09.354Z,7.80
2024-03-03T13:53:37.543Z,5.10
2024-03-03T13:56:05.093Z,5.10
2024-03-03T13:58:32.786Z,15.30
2024-03-03T14:01:00.479Z,5.20
2024-03-03T14:03:28.291Z,5.10
2024-03-03T14:05:55.838Z,5.30
2024-03-03T14:08:23.502Z,5.80
2024-03-03T14:10:51.223Z,6.00
2024-03-03T14:13:19.053Z,5.80
2024-03-03T14:15:47.078Z,7.10
2024-03-03T14:18:14.912Z,7.30
2024-03-03T14:20:42.542Z,5.60
2024-03-03T14:23:10.180Z,5.30
2024-03-03T14:25:37.908Z,5.40
2024-03-03T14:28:12.460Z,7.00
2024-03-03T14:30:41.596Z,5.70
2024-03-03T14:33:09.440Z,7.30
2024-03-03T14:35:37.451Z,5.50
2024-03-03T14:38:05.066Z,5.70
2024-03-03T14:40:32.751Z,9.00
2024-03-03T14:43:00.666Z,8.70
2024-03-03T14:45:28.250Z,7.00
2024-03-03T14:47:56.049Z,32.00
2024-03-03T14:50:23.688Z,10.40
2024-03-03T14:52:51.358Z,10.40
2024-03-03T14:55:19.041Z,8.00
2024-03-03T14:57:46.516Z,5.10
2024-03-03T15:00:14.467Z,5.10
2024-03-03T15:02:42.146Z,10.20
2024-03-03T15:05:09.968Z,6.50
2024-03-03T15:07:37.790Z,7.50
2024-03-03T15:10:05.501Z,9.70
2024-03-03T15:12:33.160Z,7.70
2024-03-03T15:15:00.807Z,7.60
2024-03-03T15:17:28.379Z,7.00
2024-03-03T15:19:56.038Z,7.00
2024-03-03T15:22:24.049Z,6.30
2024-03-03T15:24:51.785Z,6.50
2024-03-03T15:27:19.427Z,6.90
2024-03-03T15:29:47.183Z,9.30
2024-03-03T15:32:14.859Z,6.10
2024-03-03T15:34:42.574Z,5.50
2024-03-03T15:37:10.399Z,4.90
2024-03-03T15:39:39.909Z,10.40
2024-03-03T15:42:08.471Z,9.20
2024-03-03T15:44:36.043Z,7.90
2024-03-03T15:47:03.686Z,5.90
2024-03-03T15:49:31.335Z,5.70
2024-03-03T15:51:59.169Z,6.00
2024-03-03T15:54:26.878Z,5.70
2024-03-03T15:56:54.538Z,5.30
2024-03-03T15:59:22.114Z,5.90
2024-03-03T16:01:49.814Z,5.40
2024-03-03T16:04:17.842Z,5.30
2024-03-03T16:06:45.697Z,5.30
2024-03-03T16:09:13.413Z,5.30
2024-03-03T16:11:41.229Z,5.10
2024-03-03T16:14:08.787Z,5.50
2024-03-03T16:16:36.672Z,5.60
2024-03-03T16:19:04.341Z,5.30
2024-03-03T16:21:31.871Z,5.00
2024-03-03T16:23:59.538Z,5.00
2024-03-03T16:26:27.096Z,8.50
2024-03-03T16:28:54.786Z,8.50
2024-03-03T16:31:22.342Z,6.80
2024-03-03T16:33:49.939Z,5.70
2024-03-03T16:36:18.420Z,5.50
2024-03-03T16:38:46.229Z,5.20
2024-03-03T16:41:13.987Z,5.00
2024-03-03T16:43:42.015Z,8.70
2024-03-03T16:46:09.864Z,12.90
2024-03-03T16:48:37.682Z,7.60
2024-03-03T16:51:06.882Z,5.90
2024-03-03T16:53:34.753Z,7.40
2024-03-03T16:56:02.408Z,7.80
2024-03-03T16:58:30.049Z,16.80
2024-03-03T17:00:57.907Z,10.30
2024-03-03T17:03:25.510Z,6.90
2024-03-03T17:05:53.473Z,7.00
2024-03-03T17:08:21.027Z,7.20
2024-03-03T17:10:48.730Z,7.30
2024-03-03T17:13:16.508Z,9.40
2024-03-03T17:15:44.227Z,7.20
2024-03-03T17:18:12.081Z,6.90
2024-03-03T17:20:39.854Z,7.70
2024-03-03T17:23:07.413Z,9.00
2024-03-03T17:25:35.053Z,9.20
2024-03-03T17:28:02.751Z,16.10
2024-03-03T17:30:30.506Z,15.40
2024-03-03T17:32:58.089Z,17.80
2024-03-03T17:35:25.821Z,16.00
2024-03-03T17:37:53.375Z,25.70
2024-03-03T17:40:21.006Z,23.90
2024-03-03T17:42:48.762Z,34.00
2024-03-03T17:45:16.888Z,42.60
2024-03-03T17:47:44.234Z,39.10
2024-03-03T17:50:11.901Z,28.90
2024-03-03T17:52:39.500Z,18.40
2024-03-03T17:55:07.320Z,18.30
2024-03-03T17:57:34.979Z,16.00
2024-03-03T18:00:02.682Z,14.60
2024-03-03T18:02:30.403Z,15.10
2024-03-03T18:04:57.959Z,14.40
2024-03-03T18:07:25.676Z,14.10
2024-03-03T18:09:53.305Z,15.80
2024-03-03T18:12:23.008Z,81.50
2024-03-03T18:14:52.022Z,37.60
2024-03-03T18:17:19.655Z,74.70
2024-03-03T18:19:47.206Z,469.90
2024-03-03T18:22:14.878Z,198.50
2024-03-03T18:24:42.435Z,347.10
2024-03-03T18:27:10.094Z,212.10
2024-03-03T18:29:38.102Z,13.10
2024-03-03T18:32:05.828Z,9.60
2024-03-03T18:34:33.436Z,25.10
2024-03-03T18:37:01.126Z,23.90
2024-03-03T18:39:28.907Z,28.50
2024-03-03T18:41:56.466Z,30.90
2024-03-03T18:44:24.055Z,14.20
2024-03-03T18:46:51.877Z,11.60
2024-03-03T18:49:20.010Z,7.20
2024-03-03T18:51:47.625Z,7.40
2024-03-03T18:54:15.293Z,9.40
2024-03-03T18:56:42.841Z,15.90
2024-03-03T18:59:10.585Z,15.60
2024-03-03T19:01:38.302Z,19.70
2024-03-03T19:04:06.068Z,26.80
2024-03-03T19:06:33.746Z,25.70
2024-03-03T19:09:01.786Z,21.00
2024-03-03T19:11:29.468Z,25.10
2024-03-03T19:13:57.107Z,15.40
2024-03-03T19:16:24.809Z,12.60
2024-03-03T19:18:52.546Z,12.60
2024-03-03T19:21:20.292Z,28.70
2024-03-03T19:23:47.757Z,22.30
2024-03-03T19:26:15.408Z,27.50
2024-03-03T19:28:43.069Z,22.20
2024-03-03T19:31:11.089Z,25.20
2024-03-03T19:33:38.768Z,19.10
2024-03-03T19:36:06.473Z,18.60
2024-03-03T19:38:34.253Z,16.40
2024-03-03T19:41:02.015Z,19.40
2024-03-03T19:43:29.791Z,16.30
2024-03-03T19:45:57.551Z,13.40
2024-03-03T19:48:25.173Z,14.10
2024-03-03T19:50:52.845Z,13.80
2024-03-03T19:53:20.814Z,19.00
2024-03-03T19:55:48.481Z,18.50
2024-03-03T19:58:16.032Z,19.70
2024-03-03T20:00:43.707Z,34.60
2024-03-03T20:03:11.254Z,18.70
2024-03-03T20:05:38.813Z,13.70
2024-03-03T20:08:06.800Z,11.90
2024-03-03T20:10:34.657Z,14.50
2024-03-03T20:13:02.674Z,14.70
2024-03-03T20:15:30.272Z,14.80
2024-03-03T20:17:57.869Z,12.90
2024-03-03T20:20:25.746Z,12.20
2024-03-03T20:22:53.263Z,14.70
2024-03-03T20:25:21.071Z,17.20
2024-03-03T20:27:48.576Z,15.50
2024-03-03T20:30:16.191Z,16.20
2024-03-03T20:32:44.275Z,14.00
2024-03-03T20:35:11.880Z,14.40
2024-03-03T20:37:39.609Z,14.80
2024-03-03T20:40:07.355Z,13.60
2024-03-03T20:42:35.157Z,48.70
2024-03-03T20:45:02.830Z,52.60
2024-03-03T20:47:30.728Z,28.30
2024-03-03T20:49:58.267Z,20.10
2024-03-03T20:52:26.043Z,23.20
2024-03-03T20:54:53.707Z,23.20
2024-03-03T20:57:21.754Z,19.80
2024-03-03T20:59:51.032Z,18.60
2024-03-03T21:02:18.816Z,16.00
2024-03-03T21:04:46.614Z,18.50
2024-03-03T21:07:14.191Z,17.80
2024-03-03T21:09:42.004Z,19.80
2024-03-03T21:12:09.569Z,15.80
2024-03-03T21:14:37.229Z,15.10
2024-03-03T21:17:05.107Z,16.30
2024-03-03T21:19:32.886Z,19.70
2024-03-03T21:22:00.570Z,23.40
2024-03-03T21:24:28.283Z,51.80
2024-03-03T21:26:55.839Z,27.70
2024-03-03T21:29:23.401Z,30.40
2024-03-03T21:31:51.078Z,15.20
2024-03-03T21:34:18.739Z,35.80
2024-03-03T21:36:46.698Z,24.10
2024-03-03T21:39:14.381Z,15.00
2024-03-03T21:41:41.926Z,14.00
2024-03-03T21:44:09.489Z,14.60
2024-03-03T21:46:37.183Z,16.50
2024-03-03T21:49:04.939Z,16.10
2024-03-03T21:51:32.568Z,17.00
2024-03-03T21:54:00.227Z,17.60
2024-03-03T21:56:27.781Z,27.10
2024-03-03T21:58:55.343Z,24.40
2024-03-03T22:01:23.069Z,24.50
2024-03-03T22:03:50.690Z,23.40
2024-03-03T22:06:18.352Z,15.40
2024-03-03T22:08:45.794Z,17.30
2024-03-03T22:11:13.511Z,15.20
2024-03-03T22:13:41.211Z,13.20
2024-03-03T22:16:09.128Z,53.40
2024-03-03T22:18:37.049Z,48.50
2024-03-03T22:21:04.709Z,29.60
2024-03-03T22:23:32.370Z,27.80
2024-03-03T22:25:59.928Z,26.20
2024-03-03T22:28:27.556Z,24.20
2024-03-03T22:30:55.395Z,23.90
2024-03-03T22:33:23.018Z,23.60
2024-03-03T22:35:50.584Z,22.90
2024-03-03T22:38:18.243Z,24.20
2024-03-03T22:40:46.220Z,23.60
2024-03-03T22:43:13.905Z,23.80
2024-03-03T22:45:41.553Z,19.60
2024-03-03T22:48:09.088Z,22.20
2024-03-03T22:50:36.646Z,22.80
2024-03-03T22:53:04.313Z,24.30
2024-03-03T22:55:32.015Z,22.00
2024-03-03T22:57:59.908Z,23.10
2024-03-03T23:00:27.605Z,21.60
2024-03-03T23:02:55.490Z,21.90
2024-03-03T23:05:23.137Z,22.90
2024-03-03T23:07:50.598Z,19.20
2024-03-03T23:10:18.337Z,28.60
2024-03-03T23:12:46.009Z,26.40
2024-03-03T23:15:13.566Z,25.60
2024-03-03T23:17:41.281Z,29.20
2024-03-03T23:20:08.906Z,32.00
2024-03-03T23:22:36.624Z,36.20
2024-03-03T23:25:04.648Z,34.10
2024-03-03T23:27:32.289Z,36.80
2024-03-03T23:30:00.057Z,31.50
2024-03-03T23:32:27.651Z,29.30
2024-03-03T23:34:55.376Z,25.80
2024-03-03T23:37:23.023Z,23.30
2024-03-03T23:39:50.699Z,26.00
2024-03-03T23:42:18.251Z,23.60
2024-03-03T23:44:45.814Z,24.60
2024-03-03T23:47:13.687Z,25.40
2024-03-03T23:49:41.386Z,24.20
2024-03-03T23:52:09.012Z,21.60
2024-03-03T23:54:36.662Z,21.40
2024-03-03T23:57:04.328Z,20.50
2024-03-03T23:59:31.905Z,21.60
